Time;durP1;ratioP1;P1;durP2;ratioP2;P2;SDS_P1;SDS_P2;PMS_P1;PMS_P2;Temp;Humidity;BMP_temperature;BMP_pressure;BME280_temperature;BME280_humidity;BME280_pressure;Samples;Min_cycle;Max_cycle;Signal;HPM_P1;HPM_P2
2022/12/06 00:01:24;;;;;;;8.32;6.10;;;8.50;66.90;;;;;;5021884;28;20091;-76
2022/12/06 00:04:10;;;;;;;9.88;6.72;;;8.50;67.00;;;;;;5025039;28;20169;-76
2022/12/06 00:06:56;;;;;;;9.73;6.97;;;8.50;67.00;;;;;;5007216;28;20041;-76
2022/12/06 00:09:41;;;;;;;7.03;6.03;;;8.50;67.00;;;;;;5005370;28;20110;-76
2022/12/06 00:12:26;;;;;;;7.68;5.53;;;8.50;66.90;;;;;;5021601;28;20049;-76
2022/12/06 00:15:10;;;;;;;13.35;6.45;;;8.50;66.90;;;;;;4992774;28;20044;-76
2022/12/06 00:17:55;;;;;;;7.63;5.90;;;8.50;66.90;;;;;;4992414;28;20174;-77
2022/12/06 00:20:39;;;;;;;7.65;5.65;;;8.50;66.90;;;;;;5016145;28;20344;-76
2022/12/06 00:23:24;;;;;;;7.90;6.10;;;8.50;67.00;;;;;;5011787;28;20118;-76
2022/12/06 00:26:09;;;;;;;9.52;6.35;;;8.50;67.00;;;;;;5011076;28;20107;-76
2022/12/06 00:29:04;;;;;;;11.85;6.82;;;8.50;67.00;;;;;;5047044;28;20126;-77
2022/12/06 00:31:49;;;;;;;7.57;6.18;;;8.50;67.00;;;;;;5007156;28;20452;-76
2022/12/06 00:34:33;;;;;;;8.55;5.72;;;8.40;66.80;;;;;;4992757;28;20088;-76
2022/12/06 00:37:18;;;;;;;8.70;5.80;;;8.40;66.80;;;;;;5006204;28;20052;-77
2022/12/06 00:40:03;;;;;;;8.25;6.15;;;8.40;66.90;;;;;;5016183;28;20754;-76
2022/12/06 00:42:47;;;;;;;10.02;6.15;;;8.40;66.90;;;;;;5027258;28;20044;-76
2022/12/06 00:45:32;;;;;;;10.63;6.20;;;8.40;66.90;;;;;;5026785;28;20674;-76
2022/12/06 00:48:17;;;;;;;9.32;6.32;;;8.40;66.90;;;;;;5007754;28;20053;-76
2022/12/06 00:51:02;;;;;;;10.85;6.22;;;8.40;66.90;;;;;;5018967;28;20408;-76
2022/12/06 00:53:48;;;;;;;9.00;6.25;;;8.40;66.90;;;;;;5026476;28;20107;-76
2022/12/06 00:56:34;;;;;;;7.55;5.85;;;8.40;66.90;;;;;;5019058;28;20041;-76
2022/12/06 00:59:19;;;;;;;9.43;5.80;;;8.40;66.90;;;;;;5006796;28;20452;-77
2022/12/06 01:02:06;;;;;;;12.40;6.18;;;8.40;66.90;;;;;;5005431;28;20100;-76
2022/12/06 01:04:50;;;;;;;8.50;5.75;;;8.40;66.80;;;;;;5006545;28;20124;-77
2022/12/06 01:07:35;;;;;;;9.40;5.65;;;8.40;66.80;;;;;;5005462;28;20040;-76
2022/12/06 01:10:20;;;;;;;7.40;5.85;;;8.40;66.80;;;;;;5014402;28;20044;-76
2022/12/06 01:13:05;;;;;;;8.85;6.55;;;8.40;66.80;;;;;;5015473;28;20064;-76
2022/12/06 01:15:49;;;;;;;8.25;5.65;;;8.40;66.80;;;;;;5006381;28;20108;-77
2022/12/06 01:18:34;;;;;;;7.22;5.45;;;8.40;66.90;;;;;;5006826;28;20057;-76
2022/12/06 01:21:19;;;;;;;8.52;6.13;;;8.30;66.70;;;;;;5014889;28;20036;-76
2022/12/06 01:24:04;;;;;;;8.68;6.05;;;8.30;66.70;;;;;;4991570;28;20037;-76
2022/12/06 01:26:49;;;;;;;10.18;6.82;;;8.30;66.70;;;;;;4991993;28;20124;-76
2022/12/06 01:29:33;;;;;;;7.38;6.00;;;8.30;66.70;;;;;;5010385;28;20036;-77
2022/12/06 01:32:18;;;;;;;11.40;6.50;;;8.30;66.70;;;;;;5037118;28;20056;-76
2022/12/06 01:35:03;;;;;;;7.78;5.50;;;8.30;66.70;;;;;;5024539;28;20037;-76
2022/12/06 01:37:48;;;;;;;11.23;5.57;;;8.30;66.70;;;;;;5013171;28;20312;-76
2022/12/06 01:40:46;;;;;;;9.65;6.40;;;8.30;66.70;;;;;;5023796;28;20095;-76
2022/12/06 01:43:40;;;;;;;8.40;5.85;;;8.30;66.70;;;;;;5040075;28;20064;-76
2022/12/06 01:46:38;;;;;;;9.43;6.60;;;8.20;66.60;;;;;;5038889;28;20044;-77
2022/12/06 01:49:28;;;;;;;9.45;6.20;;;8.20;66.60;;;;;;5040710;28;20032;-76
2022/12/06 01:52:13;;;;;;;8.75;6.40;;;8.20;66.60;;;;;;5038377;28;20067;-77
2022/12/06 01:54:59;;;;;;;9.10;7.15;;;8.20;66.60;;;;;;5029556;28;20120;-76
2022/12/06 01:57:44;;;;;;;11.65;6.22;;;8.20;66.60;;;;;;5027308;28;20076;-77
2022/12/06 02:00:28;;;;;;;8.82;6.60;;;8.20;66.60;;;;;;5000570;28;20114;-77
2022/12/06 02:03:20;;;;;;;10.85;6.95;;;8.20;66.60;;;;;;5010384;28;20095;-77
2022/12/06 02:06:06;;;;;;;11.57;7.97;;;8.20;66.60;;;;;;5005528;28;20056;-76
2022/12/06 02:08:53;;;;;;;10.57;6.72;;;8.20;66.50;;;;;;5022126;28;20164;-76
2022/12/06 02:11:38;;;;;;;9.30;7.07;;;8.20;66.60;;;;;;5020903;28;20087;-76
2022/12/06 02:14:28;;;;;;;8.25;6.20;;;8.20;66.60;;;;;;5006576;28;20086;-76
2022/12/06 02:17:34;;;;;;;11.13;6.68;;;8.10;66.40;;;;;;5005676;28;20077;-75
2022/12/06 02:20:32;;;;;;;11.02;7.03;;;8.10;66.40;;;;;;5012385;28;20041;-76
2022/12/06 02:23:37;;;;;;;7.85;6.40;;;8.10;66.40;;;;;;5006103;28;20064;-76
2022/12/06 02:26:57;;;;;;;11.65;6.88;;;8.10;66.40;;;;;;4991051;28;20048;-76
2022/12/06 02:29:58;;;;;;;11.15;6.22;;;8.10;66.40;;;;;;4991208;28;20436;-76
2022/12/06 02:33:03;;;;;;;7.53;6.40;;;8.10;66.40;;;;;;5024717;28;20041;-76
2022/12/06 02:36:01;;;;;;;7.85;6.03;;;8.10;66.40;;;;;;5009782;28;20084;-75
2022/12/06 02:38:55;;;;;;;8.18;6.45;;;8.10;66.40;;;;;;5013064;28;20052;-76
2022/12/06 02:41:55;;;;;;;7.35;5.88;;;8.10;66.90;;;;;;5021272;28;20036;-76
2022/12/06 02:44:44;;;;;;;11.73;6.45;;;8.10;66.40;;;;;;5005434;28;20056;-76
2022/12/06 02:47:35;;;;;;;12.80;7.38;;;8.10;66.40;;;;;;5014240;28;20065;-76
2022/12/06 02:50:27;;;;;;;12.35;6.55;;;8.10;66.40;;;;;;4993671;28;20048;-75
2022/12/06 02:53:15;;;;;;;8.77;6.43;;;8.10;66.40;;;;;;5008644;28;20200;-76
2022/12/06 02:56:01;;;;;;;7.78;5.93;;;8.10;66.40;;;;;;5008260;28;20457;-77
2022/12/06 02:58:46;;;;;;;14.30;7.22;;;8.10;66.40;;;;;;5008769;28;20642;-76
2022/12/06 03:01:34;;;;;;;10.65;7.03;;;8.10;66.40;;;;;;4992906;28;20125;-76
2022/12/06 03:04:44;;;;;;;6.82;6.10;;;8.10;66.40;;;;;;5008956;28;20143;-77
2022/12/06 03:07:38;;;;;;;8.65;6.95;;;8.10;66.40;;;;;;5006925;28;20041;-76
2022/12/06 03:10:43;;;;;;;8.82;6.35;;;8.00;66.20;;;;;;5028125;28;20088;-76
2022/12/06 03:13:39;;;;;;;8.65;5.93;;;8.00;66.20;;;;;;5017615;28;20040;-76
2022/12/06 03:16:27;;;;;;;7.65;6.18;;;8.00;66.20;;;;;;4993306;28;20048;-76
2022/12/06 03:19:15;;;;;;;7.50;5.90;;;8.00;66.20;;;;;;4992724;28;20033;-76
2022/12/06 03:22:08;;;;;;;12.32;7.07;;;8.00;66.20;;;;;;5007640;28;20100;-76
2022/12/06 03:24:54;;;;;;;10.85;6.63;;;8.00;66.20;;;;;;5008094;28;20040;-76
2022/12/06 03:27:41;;;;;;;10.18;5.97;;;7.90;66.00;;;;;;4997597;28;20049;-76
2022/12/06 03:30:27;;;;;;;8.95;6.22;;;7.90;66.00;;;;;;4996167;28;20036;-76
2022/12/06 03:33:14;;;;;;;10.15;5.78;;;7.90;66.00;;;;;;5012347;28;20605;-75
2022/12/06 03:35:58;;;;;;;8.10;6.10;;;7.90;66.00;;;;;;5011139;28;20297;-76
2022/12/06 03:38:59;;;;;;;10.48;6.65;;;7.90;66.00;;;;;;5019912;28;20163;-76
2022/12/06 03:41:56;;;;;;;8.45;6.28;;;7.90;66.00;;;;;;5026585;28;20072;-75
2022/12/06 03:44:40;;;;;;;8.93;6.45;;;7.90;66.00;;;;;;5011962;28;20080;-76
2022/12/06 03:47:43;;;;;;;8.27;6.47;;;7.90;66.10;;;;;;5011549;28;20583;-75
2022/12/06 03:50:42;;;;;;;8.73;6.75;;;7.90;66.10;;;;;;5011473;28;20088;-76
2022/12/06 03:53:27;;;;;;;11.20;6.75;;;7.90;66.10;;;;;;4996568;28;20292;-75
2022/12/06 03:56:11;;;;;;;7.32;6.07;;;7.90;66.10;;;;;;5015710;28;20496;-76
2022/12/06 03:58:56;;;;;;;8.65;6.72;;;7.80;66.00;;;;;;5011119;28;20045;-76
2022/12/06 04:01:41;;;;;;;9.38;6.40;;;7.80;66.00;;;;;;5011319;28;20056;-76
2022/12/06 04:04:25;;;;;;;8.95;6.72;;;7.80;66.00;;;;;;4995916;28;20052;-76
2022/12/06 04:07:11;;;;;;;10.15;6.95;;;7.80;66.00;;;;;;5010565;28;20091;-76
2022/12/06 04:10:01;;;;;;;10.55;7.30;;;7.80;66.00;;;;;;5025436;28;20563;-76
2022/12/06 04:13:00;;;;;;;8.95;6.28;;;7.80;66.00;;;;;;5030401;28;20052;-76
2022/12/06 04:15:45;;;;;;;8.27;6.82;;;7.70;65.90;;;;;;5017011;28;20157;-76
2022/12/06 04:18:30;;;;;;;6.78;5.70;;;7.70;65.90;;;;;;5027553;28;20852;-76
2022/12/06 04:24:17;;;;;;;7.75;6.63;;;7.70;66.00;;;;;;5012523;28;20079;-75
2022/12/06 04:39:17;;;;;;;9.63;6.57;;;7.60;65.90;;;;;;5010725;28;20041;-75
2022/12/06 04:45:06;;;;;;;9.63;6.63;;;7.60;65.90;;;;;;5012212;28;20103;-76
2022/12/06 04:47:51;;;;;;;7.72;6.30;;;7.60;66.00;;;;;;5008381;28;20053;-76
2022/12/06 04:50:35;;;;;;;7.85;6.32;;;7.60;66.00;;;;;;5010072;28;20095;-75
2022/12/06 04:53:20;;;;;;;9.07;6.45;;;7.60;66.00;;;;;;5010596;28;20056;-76
2022/12/06 04:56:05;;;;;;;7.40;6.60;;;7.60;66.00;;;;;;5010791;28;20121;-76
2022/12/06 04:58:49;;;;;;;8.13;6.30;;;7.60;66.00;;;;;;4996494;28;20573;-75
2022/12/06 05:01:34;;;;;;;8.57;6.38;;;7.60;66.00;;;;;;4995929;28;20190;-76
2022/12/06 05:04:18;;;;;;;7.68;6.80;;;7.60;66.10;;;;;;5010726;28;20048;-75
2022/12/06 05:07:03;;;;;;;9.60;6.97;;;7.50;65.90;;;;;;4981709;28;20096;-75
2022/12/06 05:09:48;;;;;;;11.88;6.93;;;7.50;66.00;;;;;;5027442;28;20045;-75
2022/12/06 05:12:32;;;;;;;7.22;6.22;;;7.50;66.00;;;;;;5030262;28;20134;-75
2022/12/06 05:15:17;;;;;;;10.27;6.75;;;7.50;66.00;;;;;;5030196;28;20164;-75
2022/12/06 05:18:01;;;;;;;9.30;6.60;;;7.50;66.10;;;;;;5013806;28;20092;-75
2022/12/06 05:20:46;;;;;;;8.82;6.63;;;7.50;66.10;;;;;;5013780;28;20200;-76
2022/12/06 05:23:32;;;;;;;7.43;6.20;;;7.50;66.20;;;;;;5005470;28;20104;-75
2022/12/06 05:26:19;;;;;;;9.40;6.95;;;7.50;66.20;;;;;;5019375;28;20508;-76
2022/12/06 05:29:03;;;;;;;9.38;6.55;;;7.50;66.20;;;;;;5016282;28;20045;-75
2022/12/06 05:31:48;;;;;;;9.30;6.95;;;7.50;66.20;;;;;;5010041;28;20072;-74
2022/12/06 05:34:33;;;;;;;7.13;6.38;;;7.50;66.20;;;;;;5010387;28;20144;-75
2022/12/06 05:37:17;;;;;;;7.15;6.18;;;7.50;66.20;;;;;;4993432;28;20402;-76
2022/12/06 05:40:02;;;;;;;8.43;7.28;;;7.50;66.30;;;;;;5028458;28;20090;-76
2022/12/06 05:42:48;;;;;;;9.18;6.55;;;7.50;66.20;;;;;;5007348;28;20088;-76
2022/12/06 05:45:32;;;;;;;8.27;6.13;;;7.50;66.30;;;;;;5009755;28;20033;-75
2022/12/06 05:48:17;;;;;;;7.90;6.10;;;7.50;66.30;;;;;;5016329;28;20064;-76
2022/12/06 05:51:02;;;;;;;8.95;6.32;;;7.50;66.20;;;;;;5009613;28;20055;-75
2022/12/06 05:53:46;;;;;;;7.05;5.93;;;7.50;66.30;;;;;;5024747;28;20035;-75
2022/12/06 05:56:32;;;;;;;7.32;6.13;;;7.50;66.30;;;;;;5008885;28;20413;-75
2022/12/06 05:59:17;;;;;;;8.88;6.35;;;7.50;66.30;;;;;;5018017;28;20060;-75
2022/12/06 06:02:01;;;;;;;8.27;6.18;;;7.50;66.30;;;;;;4990573;28;20575;-75
2022/12/06 06:04:46;;;;;;;9.35;6.78;;;7.50;66.30;;;;;;4999322;28;20076;-75
2022/12/06 06:07:30;;;;;;;7.95;6.13;;;7.60;66.50;;;;;;5003726;28;20402;-75
2022/12/06 06:10:16;;;;;;;7.18;5.63;;;7.50;66.40;;;;;;5024252;28;20032;-76
2022/12/06 06:13:00;;;;;;;7.20;5.65;;;7.50;66.40;;;;;;5024146;28;20413;-75
2022/12/06 06:15:45;;;;;;;8.52;6.45;;;7.50;66.40;;;;;;5010551;28;20308;-76
2022/12/06 06:18:30;;;;;;;11.90;6.45;;;7.50;66.50;;;;;;5013609;28;20539;-76
2022/12/06 06:21:14;;;;;;;9.70;6.10;;;7.50;66.50;;;;;;5025803;28;20052;-76
2022/12/06 06:23:59;;;;;;;6.55;5.25;;;7.50;66.50;;;;;;5005041;28;20040;-77
2022/12/06 06:26:44;;;;;;;7.53;6.13;;;7.50;66.50;;;;;;4990948;28;20129;-78
2022/12/06 06:29:29;;;;;;;7.32;5.35;;;7.50;66.50;;;;;;5016765;28;20112;-76
2022/12/06 06:32:13;;;;;;;8.48;5.80;;;7.50;66.50;;;;;;4990965;28;20105;-75
2022/12/06 06:34:58;;;;;;;11.13;5.93;;;7.50;66.50;;;;;;4996115;28;20035;-76
2022/12/06 06:37:43;;;;;;;8.13;5.97;;;7.50;66.50;;;;;;5022716;28;20055;-75
2022/12/06 06:40:28;;;;;;;6.80;5.60;;;7.50;66.60;;;;;;5025546;28;20105;-75
2022/12/06 06:43:19;;;;;;;6.15;5.55;;;7.50;66.60;;;;;;5025113;28;20456;-75
2022/12/06 06:46:08;;;;;;;6.65;5.57;;;7.50;66.60;;;;;;5020489;28;20066;-76
2022/12/06 06:48:52;;;;;;;9.13;5.63;;;7.50;67.20;;;;;;5014508;28;20044;-76
2022/12/06 06:51:37;;;;;;;8.77;5.78;;;7.50;66.60;;;;;;5003958;28;20607;-79
2022/12/06 06:54:22;;;;;;;7.93;5.38;;;7.40;66.50;;;;;;5004931;28;20092;-80
2022/12/06 06:57:07;;;;;;;7.45;5.78;;;7.40;66.50;;;;;;5005478;28;20049;-78
2022/12/06 06:59:51;;;;;;;8.40;4.80;;;7.40;66.60;;;;;;5024560;28;20083;-78
2022/12/06 07:02:38;;;;;;;7.68;5.45;;;7.50;67.50;;;;;;5025133;28;20077;-74
2022/12/06 07:05:22;;;;;;;14.82;6.78;;;7.50;67.30;;;;;;5009248;28;20037;-75
2022/12/06 07:08:07;;;;;;;11.02;6.13;;;7.60;67.40;;;;;;5015449;28;20041;-75
2022/12/06 07:10:53;;;;;;;7.93;5.60;;;7.60;67.60;;;;;;5024009;28;20056;-74
2022/12/06 07:13:39;;;;;;;10.13;5.80;;;7.70;67.80;;;;;;5023490;28;20040;-72
2022/12/06 07:16:23;;;;;;;11.07;5.40;;;7.80;68.10;;;;;;5009892;28;20109;-73
2022/12/06 07:19:08;;;;;;;7.78;5.65;;;7.80;68.10;;;;;;5016660;28;20035;-76
2022/12/06 07:21:53;;;;;;;7.65;5.22;;;7.80;68.20;;;;;;5023003;28;20040;-75
2022/12/06 07:24:38;;;;;;;8.98;5.22;;;7.90;68.40;;;;;;5008588;28;20503;-73
2022/12/06 07:27:22;;;;;;;14.43;5.22;;;7.90;68.40;;;;;;4989468;28;20229;-74
2022/12/06 07:30:07;;;;;;;6.20;4.85;;;7.90;68.50;;;;;;5007915;28;20040;-78
2022/12/06 07:32:52;;;;;;;7.75;5.50;;;7.90;68.50;;;;;;5023799;28;20095;-73
2022/12/06 07:35:36;;;;;;;7.30;5.30;;;8.00;68.90;;;;;;4977394;28;20337;-74
2022/12/06 07:38:21;;;;;;;7.13;4.95;;;8.00;68.90;;;;;;5008185;28;20103;-72
2022/12/06 07:47:16;;;;;;;7.72;4.78;;;8.10;69.20;;;;;;5003755;28;20072;-73
2022/12/06 07:50:02;;;;;;;6.22;4.45;;;8.10;69.10;;;;;;5015124;28;20172;-74
2022/12/06 07:52:49;;;;;;;6.07;4.10;;;8.10;69.10;;;;;;5020911;28;20036;-76
2022/12/06 07:55:33;;;;;;;6.53;4.90;;;8.20;69.30;;;;;;5023039;28;20044;-76
2022/12/06 07:58:17;;;;;;;10.02;3.90;;;8.20;69.20;;;;;;5020812;28;20107;-73
2022/12/06 08:01:03;;;;;;;7.22;3.90;;;8.20;69.20;;;;;;5023433;28;20044;-75
2022/12/06 08:03:48;;;;;;;6.15;4.25;;;8.10;69.10;;;;;;5014348;28;20044;-73
2022/12/06 08:06:33;;;;;;;7.40;4.50;;;8.20;69.20;;;;;;5021453;28;20292;-75
2022/12/06 08:09:18;;;;;;;4.95;3.53;;;8.20;69.20;;;;;;5015172;28;20068;-75
2022/12/06 08:12:03;;;;;;;5.20;3.53;;;8.20;69.20;;;;;;5020714;28;20270;-75
2022/12/06 08:14:47;;;;;;;6.45;3.80;;;8.20;69.10;;;;;;5003829;28;20103;-74
2022/12/06 08:17:32;;;;;;;5.45;3.75;;;8.20;69.10;;;;;;5014562;28;20096;-74
2022/12/06 08:20:16;;;;;;;6.00;3.80;;;8.30;69.20;;;;;;5007197;28;20100;-75
2022/12/06 08:23:01;;;;;;;5.80;3.72;;;8.30;69.10;;;;;;5014220;28;20451;-75
2022/12/06 08:25:46;;;;;;;4.97;3.72;;;8.30;69.10;;;;;;5027426;28;20060;-73
2022/12/06 08:28:32;;;;;;;10.48;3.70;;;8.30;69.00;;;;;;5022953;28;20048;-73
2022/12/06 08:31:22;;;;;;;6.32;3.67;;;8.40;69.10;;;;;;5026722;28;20044;-76
2022/12/06 08:34:07;;;;;;;6.90;3.92;;;8.40;69.00;;;;;;5015070;28;20079;-76
2022/12/06 08:36:52;;;;;;;6.03;3.58;;;8.40;68.90;;;;;;5025204;28;20052;-75
2022/12/06 08:39:36;;;;;;;5.88;3.70;;;8.40;68.90;;;;;;5006335;28;20527;-75
2022/12/06 08:42:21;;;;;;;6.07;3.90;;;8.40;68.90;;;;;;5026151;28;20768;-74
2022/12/06 08:45:06;;;;;;;4.65;3.17;;;8.50;69.00;;;;;;5026331;28;20044;-75
2022/12/06 08:47:51;;;;;;;7.50;4.18;;;8.50;68.90;;;;;;5012079;28;20327;-74
2022/12/06 08:50:37;;;;;;;4.75;3.90;;;8.50;68.90;;;;;;5026367;28;20535;-73
2022/12/06 08:53:22;;;;;;;7.97;3.60;;;8.50;68.80;;;;;;5026268;28;20508;-75
2022/12/06 08:56:06;;;;;;;6.25;3.28;;;8.60;68.90;;;;;;5010210;28;20052;-75
2022/12/06 08:58:52;;;;;;;6.97;3.40;;;8.60;68.80;;;;;;5014772;28;20051;-75
2022/12/06 09:01:37;;;;;;;7.70;4.15;;;8.60;68.60;;;;;;5024808;28;20035;-75
2022/12/06 09:04:22;;;;;;;4.75;3.20;;;8.60;68.50;;;;;;5026708;28;20043;-77
2022/12/06 09:07:06;;;;;;;5.65;3.17;;;8.60;68.40;;;;;;5003534;28;20078;-73
2022/12/06 09:09:53;;;;;;;3.88;2.78;;;8.60;68.40;;;;;;5023003;28;20044;-74
2022/12/06 09:12:38;;;;;;;3.58;2.47;;;8.60;68.30;;;;;;5025663;28;20095;-75
2022/12/06 09:15:22;;;;;;;4.22;2.88;;;8.70;68.50;;;;;;5006621;28;20489;-76
2022/12/06 09:18:07;;;;;;;4.35;2.67;;;8.70;68.30;;;;;;5022800;28;20547;-77
2022/12/06 09:20:52;;;;;;;6.07;3.00;;;8.60;68.10;;;;;;5024055;28;20053;-76
2022/12/06 09:23:37;;;;;;;5.55;3.15;;;8.60;68.00;;;;;;5020632;28;20149;-80
2022/12/06 09:26:22;;;;;;;10.18;3.55;;;8.60;67.90;;;;;;4992448;28;20048;-78
2022/12/06 09:29:07;;;;;;;4.78;3.15;;;8.60;67.80;;;;;;5000934;28;20453;-79
2022/12/06 09:31:52;;;;;;;3.85;2.90;;;8.60;67.80;;;;;;5006006;28;20079;-80
2022/12/06 09:34:37;;;;;;;4.00;2.60;;;8.50;67.60;;;;;;5006243;28;20077;-78
2022/12/06 09:37:22;;;;;;;5.63;3.40;;;8.50;67.60;;;;;;5005136;28;20112;-79
2022/12/06 09:40:15;;;;;;;6.85;3.15;;;8.50;67.50;;;;;;5024351;28;20052;-77
2022/12/06 09:43:09;;;;;;;;;;;8.40;67.30;;;;;;4996441;28;20035;-80
2022/12/06 09:46:29;;;;;;;6.75;2.75;;;8.40;67.30;;;;;;5017573;28;20072;-75
2022/12/06 09:49:26;;;;;;;5.47;3.08;;;8.40;67.20;;;;;;4995866;28;20421;-76
2022/12/06 09:52:29;;;;;;;5.43;3.78;;;8.40;67.10;;;;;;5023797;28;20435;-79
2022/12/06 09:55:42;;;;;;;4.78;2.72;;;8.40;67.00;;;;;;5026632;28;20388;-81
2022/12/06 09:58:33;;;;;;;5.13;2.85;;;8.40;66.90;;;;;;5010412;28;20057;-79
2022/12/06 10:01:50;;;;;;;6.75;2.92;;;8.50;67.10;;;;;;5018946;28;20076;-78
2022/12/06 10:05:00;;;;;;;8.93;3.03;;;8.50;66.90;;;;;;4980117;28;20244;-77
2022/12/06 10:07:51;;;;;;;4.53;3.38;;;8.50;66.80;;;;;;4993607;28;20044;-75
2022/12/06 10:10:48;;;;;;;5.45;3.15;;;8.60;66.80;;;;;;5012553;28;20052;-79
2022/12/06 10:14:10;;;;;;;5.18;4.38;;;8.60;66.70;;;;;;4996863;28;20105;-77
2022/12/06 10:17:23;;;;;;;7.40;2.80;;;8.60;66.50;;;;;;5012866;28;20099;-78
2022/12/06 10:20:17;;;;;;;7.30;3.58;;;8.70;66.60;;;;;;5001893;28;20080;-78
2022/12/06 10:23:23;;;;;;;5.78;3.22;;;8.70;66.40;;;;;;5038752;28;20377;-78
2022/12/06 10:26:10;;;;;;;7.47;3.58;;;8.80;66.40;;;;;;5038549;28;20397;-78
2022/12/06 10:29:18;;;;;;;5.13;2.97;;;8.90;66.40;;;;;;5023117;28;20345;-76
2022/12/06 10:32:15;;;;;;;5.13;2.90;;;8.90;66.20;;;;;;5007287;28;20096;-76
2022/12/06 10:35:20;;;;;;;3.45;2.88;;;8.90;66.10;;;;;;5006138;28;20312;-76
2022/12/06 10:38:13;;;;;;;7.97;3.50;;;9.00;66.10;;;;;;4992921;28;20045;-75
2022/12/06 10:41:13;;;;;;;9.95;3.42;;;9.00;66.00;;;;;;5024709;28;20037;-75
2022/12/06 10:44:38;;;;;;;4.78;3.50;;;9.10;66.00;;;;;;5032769;28;20186;-76
2022/12/06 10:47:31;;;;;;;3.83;2.70;;;9.10;65.80;;;;;;5004130;28;20102;-77
2022/12/06 10:50:29;;;;;;;8.25;4.07;;;9.10;65.80;;;;;;5023237;28;20056;-78
2022/12/06 10:53:17;;;;;;;7.40;3.13;;;9.20;65.70;;;;;;5011877;28;20045;-77
2022/12/06 10:56:19;;;;;;;4.25;2.67;;;9.30;65.80;;;;;;5005541;28;20448;-78
2022/12/06 10:59:17;;;;;;;5.47;2.80;;;9.20;65.90;;;;;;5001139;28;20866;-78
2022/12/06 11:02:33;;;;;;;7.18;2.53;;;9.30;65.50;;;;;;5014141;28;20201;-78
2022/12/06 11:05:23;;;;;;;3.15;2.78;;;9.30;65.40;;;;;;5017603;28;20530;-78
2022/12/06 11:08:27;;;;;;;5.32;3.00;;;9.30;65.30;;;;;;5025078;28;20044;-78
2022/12/06 11:11:16;;;;;;;4.63;2.88;;;9.30;65.20;;;;;;5004884;28;20111;-76
2022/12/06 11:14:17;;;;;;;5.57;2.90;;;9.30;65.10;;;;;;5005613;28;20041;-77
2022/12/06 11:17:10;;;;;;;6.15;3.10;;;9.30;65.00;;;;;;4989331;28;20061;-78
2022/12/06 11:19:58;;;;;;;;;;;9.30;64.90;;;;;;5008085;28;20092;-78
2022/12/06 11:23:10;;;;;;;19.30;4.63;;;9.30;64.80;;;;;;5004015;28;20011;-78
2022/12/06 11:26:32;;;;;;;5.20;2.50;;;9.30;64.70;;;;;;5004745;28;20049;-79
2022/12/06 11:29:16;;;;;;;4.40;3.00;;;9.30;64.70;;;;;;5008326;28;20061;-79
2022/12/06 11:32:06;;;;;;;3.95;2.78;;;9.30;64.70;;;;;;5004754;28;20177;-79
2022/12/06 11:34:56;;;;;;;4.47;2.50;;;9.30;64.60;;;;;;5005481;28;20141;-79
2022/12/06 11:37:42;;;;;;;2.92;2.17;;;9.40;64.60;;;;;;5003057;28;20052;-78
2022/12/06 11:40:31;;;;;;;4.63;2.70;;;9.50;64.70;;;;;;5003344;28;20465;-77
2022/12/06 11:43:23;;;;;;;3.30;2.20;;;9.50;64.30;;;;;;5006135;28;20045;-76
2022/12/06 11:46:11;;;;;;;6.75;4.07;;;9.50;64.20;;;;;;4990286;28;20639;-77
2022/12/06 11:49:08;;;;;;;7.38;3.60;;;9.60;64.50;;;;;;5015000;28;20048;-77
2022/12/06 11:51:54;;;;;;;7.55;3.28;;;9.70;64.70;;;;;;5027933;28;20342;-76
2022/12/06 11:54:47;;;;;;;7.85;3.55;;;9.70;64.70;;;;;;4994612;28;20133;-76
2022/12/06 11:57:40;;;;;;;7.88;2.63;;;9.70;64.60;;;;;;5008506;28;20107;-77
2022/12/06 12:00:25;;;;;;;4.95;2.95;;;9.60;64.60;;;;;;5024326;28;20044;-76
2022/12/06 12:03:31;;;;;;;3.75;2.85;;;9.60;64.60;;;;;;5016437;28;20051;-74
2022/12/06 12:06:25;;;;;;;4.40;2.45;;;9.60;64.60;;;;;;5027543;28;20600;-75
2022/12/06 12:09:18;;;;;;;4.25;2.15;;;9.60;64.70;;;;;;5021147;28;20465;-75
2022/12/06 12:12:14;;;;;;;4.45;2.15;;;9.60;64.70;;;;;;5017329;28;20044;-74
2022/12/06 12:14:58;;;;;;;3.40;2.30;;;9.70;64.80;;;;;;4993453;28;20105;-76
2022/12/06 12:17:47;;;;;;;2.90;2.38;;;9.70;64.80;;;;;;5011967;28;20064;-76
2022/12/06 12:20:37;;;;;;;6.15;3.00;;;9.70;64.70;;;;;;5019049;28;20047;-74
2022/12/06 12:23:26;;;;;;;3.67;2.30;;;9.70;64.70;;;;;;5005049;28;20068;-75
2022/12/06 12:26:12;;;;;;;4.22;2.47;;;9.70;64.60;;;;;;4993280;28;20044;-76
2022/12/06 12:29:23;;;;;;;4.85;2.30;;;9.70;64.60;;;;;;5014216;28;20117;-77
2022/12/06 12:32:11;;;;;;;5.10;2.78;;;9.70;64.60;;;;;;5022355;28;20045;-76
2022/12/06 12:34:55;;;;;;;5.30;2.63;;;9.70;64.60;;;;;;5011872;28;20507;-76
2022/12/06 12:37:40;;;;;;;3.50;2.42;;;9.70;64.50;;;;;;5025361;28;20060;-76
2022/12/06 12:40:33;;;;;;;5.95;2.72;;;9.60;64.40;;;;;;5024998;28;20048;-76
2022/12/06 12:43:37;;;;;;;5.32;2.63;;;9.60;64.90;;;;;;5008550;28;20087;-76
2022/12/06 12:46:23;;;;;;;5.18;2.53;;;9.50;64.10;;;;;;5006597;28;20159;-74
2022/12/06 12:49:32;;;;;;;3.90;2.22;;;9.60;64.30;;;;;;5014312;28;20111;-74
2022/12/06 12:52:29;;;;;;;3.75;2.55;;;9.50;64.00;;;;;;5009881;28;20045;-73
2022/12/06 12:55:16;;;;;;;3.50;2.35;;;9.50;64.10;;;;;;5007259;28;20516;-72
2022/12/06 12:58:00;;;;;;;3.42;2.67;;;9.50;64.10;;;;;;5014851;28;20047;-73
2022/12/06 13:00:47;;;;;;;2.78;2.30;;;9.50;64.10;;;;;;5016148;28;20385;-72
2022/12/06 13:03:33;;;;;;;4.90;3.08;;;9.50;64.10;;;;;;5004121;28;20052;-73
2022/12/06 13:06:41;;;;;;;5.38;2.60;;;9.50;64.00;;;;;;5025460;28;20463;-73
2022/12/06 13:09:59;;;;;;;3.72;2.55;;;9.40;63.80;;;;;;5020591;28;20104;-73
2022/12/06 13:12:49;;;;;;;3.33;2.53;;;9.40;63.80;;;;;;5025302;28;20064;-72
2022/12/06 13:15:46;;;;;;;4.55;2.60;;;9.50;64.00;;;;;;5025447;28;20072;-76
2022/12/06 13:18:50;;;;;;;4.63;2.55;;;9.40;63.80;;;;;;4996761;28;20140;-76
2022/12/06 13:21:37;;;;;;;5.00;2.85;;;9.40;63.80;;;;;;5005442;28;20183;-76
2022/12/06 13:24:28;;;;;;;5.00;2.45;;;9.40;63.80;;;;;;4999479;28;20183;-74
2022/12/06 13:27:18;;;;;;;3.92;2.75;;;9.50;63.80;;;;;;5026446;28;20412;-74
2022/12/06 13:30:05;;;;;;;3.78;2.72;;;9.50;63.70;;;;;;5011183;28;20029;-74
2022/12/06 13:32:58;;;;;;;3.47;2.55;;;9.50;63.70;;;;;;5011756;28;20088;-74
2022/12/06 13:35:50;;;;;;;5.32;3.03;;;9.50;63.60;;;;;;5025017;28;20350;-74
2022/12/06 13:38:37;;;;;;;3.78;2.33;;;9.60;63.60;;;;;;5012071;28;20047;-75
2022/12/06 13:45:00;;;;;;;5.03;2.60;;;9.70;63.40;;;;;;4991357;28;20531;-74
2022/12/06 13:47:49;;;;;;;2.28;1.92;;;9.80;63.50;;;;;;4988650;28;20449;-74
2022/12/06 13:50:34;;;;;;;2.72;2.30;;;9.80;63.30;;;;;;4981356;28;20050;-74
2022/12/06 13:53:21;;;;;;;3.50;2.28;;;9.90;63.30;;;;;;4975291;28;20049;-75
2022/12/06 13:56:29;;;;;;;3.53;2.00;;;9.90;63.10;;;;;;4985859;28;20041;-75
2022/12/06 13:59:14;;;;;;;2.83;2.15;;;10.00;63.00;;;;;;4983803;28;20049;-75
2022/12/06 14:01:59;;;;;;;2.85;2.35;;;10.10;63.10;;;;;;4965060;28;20454;-74
2022/12/06 14:04:44;;;;;;;3.25;2.10;;;10.20;63.00;;;;;;4966837;28;20045;-75
2022/12/06 14:07:35;;;;;;;3.60;2.70;;;10.20;62.80;;;;;;4969018;28;20050;-74
2022/12/06 14:10:19;;;;;;;2.45;2.20;;;10.30;62.80;;;;;;4979258;28;20080;-73
2022/12/06 14:13:04;;;;;;;3.58;1.70;;;10.30;62.60;;;;;;4975129;28;20045;-74
2022/12/06 14:15:51;;;;;;;4.57;2.33;;;10.30;62.50;;;;;;4986053;28;20632;-75
2022/12/06 14:18:39;;;;;;;3.33;2.15;;;10.40;62.50;;;;;;4967779;28;20053;-74
2022/12/06 14:21:28;;;;;;;3.28;2.15;;;10.40;62.30;;;;;;4983296;28;20037;-74
2022/12/06 14:24:40;;;;;;;3.13;2.20;;;10.40;62.20;;;;;;4965255;28;20049;-75
2022/12/06 14:27:28;;;;;;;3.95;2.05;;;10.40;61.90;;;;;;4976451;28;20109;-74
2022/12/06 14:30:13;;;;;;;4.68;2.17;;;10.50;62.10;;;;;;4985486;28;20305;-74
2022/12/06 14:32:58;;;;;;;4.50;2.33;;;10.40;61.90;;;;;;4978817;28;20109;-74
2022/12/06 14:35:51;;;;;;;4.13;2.85;;;10.50;61.90;;;;;;4965234;28;20165;-75
2022/12/06 14:38:36;;;;;;;;;;;10.40;61.70;;;;;;4972505;28;20553;-74
2022/12/06 14:44:29;;;;;;;3.38;2.40;;;10.30;61.80;;;;;;4984121;28;20501;-74
2022/12/06 14:47:15;;;;;;;4.90;2.90;;;10.20;61.70;;;;;;4995343;28;20056;-75
2022/12/06 14:50:43;;;;;;;3.95;2.38;;;10.10;61.50;;;;;;5019391;28;20523;-75
2022/12/06 14:53:26;;;;;;;3.47;2.58;;;10.10;61.70;;;;;;5022985;28;20114;-75
2022/12/06 14:56:27;;;;;;;3.13;2.67;;;10.00;61.50;;;;;;5023626;28;20059;-74
2022/12/06 14:59:12;;;;;;;4.25;2.30;;;9.90;61.50;;;;;;5020584;28;20092;-75
2022/12/06 15:01:57;;;;;;;4.88;2.90;;;9.80;61.50;;;;;;5023055;28;20140;-74
2022/12/06 15:04:41;;;;;;;3.38;2.60;;;9.80;61.70;;;;;;5010147;28;20048;-75
2022/12/06 15:07:38;;;;;;;3.67;3.00;;;9.80;61.80;;;;;;5011861;28;20575;-76
2022/12/06 15:10:31;;;;;;;5.40;2.17;;;9.70;61.70;;;;;;5016113;28;20040;-76
2022/12/06 15:13:16;;;;;;;4.38;2.78;;;9.70;61.80;;;;;;5009394;28;20199;-76
2022/12/06 15:16:06;;;;;;;4.63;2.88;;;9.70;61.80;;;;;;5024648;28;20040;-73
2022/12/06 15:18:59;;;;;;;3.83;3.22;;;9.70;61.80;;;;;;5007320;28;20111;-73
2022/12/06 15:21:43;;;;;;;3.70;2.28;;;9.70;61.80;;;;;;5020983;28;20032;-73
2022/12/06 15:24:29;;;;;;;4.35;2.63;;;9.60;61.70;;;;;;5022639;28;20154;-73